createdAt,value
2023-04-18T00:02:23.330Z,-18540.41
2023-04-18T00:05:27.245Z,-18536.44
2023-04-18T00:08:30.042Z,-18536.44
2023-04-18T00:11:32.974Z,-18535.75
2023-04-18T00:14:38.061Z,-18535.34
2023-04-18T00:17:41.065Z,-18536.72
2023-04-18T00:20:43.968Z,-18538.06
2023-04-18T00:23:46.873Z,-18538.50
2023-04-18T00:26:49.366Z,-18539.03
2023-04-18T00:29:52.288Z,-18537.81
2023-04-18T00:32:57.696Z,-18538.63
2023-04-18T00:36:00.585Z,-18538.06
2023-04-18T00:39:03.294Z,-18539.16
2023-04-18T00:42:06.738Z,-18540.00
2023-04-18T00:45:09.724Z,-18540.41
2023-04-18T00:48:12.900Z,-18541.22
2023-04-18T00:51:15.986Z,-18542.59
2023-04-18T00:54:19.180Z,-18542.19
2023-04-18T00:57:22.320Z,-18541.91
2023-04-18T01:00:26.583Z,-18542.31
2023-04-18T01:03:29.489Z,-18541.91
2023-04-18T01:06:32.933Z,-18543.56
2023-04-18T01:09:37.299Z,-18541.78
2023-04-18T01:12:40.858Z,-18539.59
2023-04-18T01:15:45.172Z,-18543.00
2023-04-18T01:18:48.646Z,-18544.38
2023-04-18T01:21:53.537Z,-18543.97
2023-04-18T01:24:57.057Z,-18542.31
2023-04-18T01:28:00.199Z,-18541.78
2023-04-18T01:31:03.373Z,-18542.19
2023-04-18T01:34:06.386Z,-18542.59
2023-04-18T01:37:09.827Z,-18544.09
2023-04-18T01:40:12.702Z,-18543.13
2023-04-18T01:43:15.551Z,-18543.28
2023-04-18T01:46:18.186Z,-18544.78
2023-04-18T01:49:20.986Z,-18545.47
2023-04-18T01:52:25.229Z,-18545.31
2023-04-18T01:55:28.054Z,-18544.78
2023-04-18T01:58:30.682Z,-18545.06
2023-04-18T02:01:33.618Z,-18548.34
2023-04-18T02:04:36.463Z,-18544.78
2023-04-18T02:07:39.849Z,-18544.22
2023-04-18T02:10:43.425Z,-18543.13
2023-04-18T02:13:46.132Z,-18543.97
2023-04-18T02:16:49.062Z,-18543.81
2023-04-18T02:19:52.766Z,-18543.41
2023-04-18T02:22:55.677Z,-18544.22
2023-04-18T02:25:58.185Z,-18544.78
2023-04-18T02:29:00.984Z,-18546.97
2023-04-18T02:32:05.421Z,-18547.94
2023-04-18T02:35:08.631Z,-18546.97
2023-04-18T02:38:11.171Z,-18545.31
2023-04-18T02:41:17.541Z,-18545.31
2023-04-18T02:44:20.637Z,-18546.44
2023-04-18T02:47:23.554Z,-18546.28
2023-04-18T02:50:27.077Z,-18544.50
2023-04-18T02:53:30.666Z,-18542.59
2023-04-18T02:56:33.569Z,-18540.53
2023-04-18T02:59:38.686Z,-18535.47
2023-04-18T03:02:42.415Z,-18533.28
2023-04-18T03:05:46.151Z,-18532.19
2023-04-18T03:08:48.743Z,-18532.47
2023-04-18T03:11:52.264Z,-18531.38
2023-04-18T03:14:55.808Z,-18531.09
2023-04-18T03:17:58.961Z,-18533.69
2023-04-18T03:21:02.478Z,-18532.47
2023-04-18T03:24:12.368Z,-18532.59
2023-04-18T03:27:16.172Z,-18534.94
2023-04-18T03:30:20.800Z,-18536.03
2023-04-18T03:33:24.498Z,-18534.94
2023-04-18T03:36:31.397Z,-18536.03
2023-04-18T03:39:34.460Z,-18535.88
2023-04-18T03:42:37.835Z,-18535.75
2023-04-18T03:45:40.627Z,-18536.03
2023-04-18T03:48:43.495Z,-18536.31
2023-04-18T03:51:47.926Z,-18536.03
2023-04-18T03:54:50.910Z,-18536.31
2023-04-18T03:57:54.544Z,-18535.75
2023-04-18T04:00:58.105Z,-18533.84
2023-04-18T04:04:02.848Z,-18532.59
2023-04-18T04:07:05.881Z,-18526.84
2023-04-18T04:10:09.115Z,-18522.75
2023-04-18T04:13:12.183Z,-18517.41
2023-04-18T04:16:15.538Z,-18512.63
2023-04-18T04:19:19.316Z,-18509.75
2023-04-18T04:22:23.270Z,-18507.97
2023-04-18T04:25:29.764Z,-18508.78
2023-04-18T04:28:36.040Z,-18508.22
2023-04-18T04:31:39.447Z,-18507.69
2023-04-18T04:34:42.483Z,-18508.38
2023-04-18T04:37:45.530Z,-18507.41
2023-04-18T04:40:50.072Z,-18506.88
2023-04-18T04:43:53.921Z,-18506.59
2023-04-18T04:46:57.759Z,-18507.41
2023-04-18T04:50:01.422Z,-18506.72
2023-04-18T04:53:07.733Z,-18508.22
2023-04-18T04:56:11.057Z,-18509.47
2023-04-18T04:59:15.356Z,-18509.88
2023-04-18T05:02:18.411Z,-18509.75
2023-04-18T05:05:21.333Z,-18512.06
2023-04-18T05:08:24.004Z,-18514.00
2023-04-18T05:11:27.202Z,-18514.13
2023-04-18T05:14:31.026Z,-18514.66
2023-04-18T05:17:33.992Z,-18513.84
2023-04-18T05:20:36.627Z,-18514.13
2023-04-18T05:23:40.151Z,-18515.09
2023-04-18T05:26:43.409Z,-18518.50
2023-04-18T05:29:47.651Z,-18523.44
2023-04-18T05:32:50.400Z,-18528.63
2023-04-18T05:35:53.762Z,-18531.66
2023-04-18T05:38:56.511Z,-18536.44
2023-04-18T05:41:59.383Z,-18541.91
2023-04-18T05:45:01.992Z,-18546.44
2023-04-18T05:48:05.473Z,-18550.41
2023-04-18T05:51:09.455Z,-18552.84
2023-04-18T05:54:13.642Z,-18559.00
2023-04-18T05:57:16.575Z,-18562.56
2023-04-18T06:00:20.000Z,-18564.47
2023-04-18T06:03:23.453Z,-18570.22
2023-04-18T06:06:26.293Z,-18575.16
2023-04-18T06:09:29.197Z,-18577.06
2023-04-18T06:12:31.856Z,-18576.78
2023-04-18T06:15:35.331Z,-18577.47
2023-04-18T06:18:38.354Z,-18578.69
2023-04-18T06:21:42.813Z,-18582.25
2023-04-18T06:24:45.337Z,-18578.28
2023-04-18T06:27:48.312Z,-18583.88
2023-04-18T06:30:51.050Z,-18591.94
2023-04-18T06:33:53.901Z,-18596.72
2023-04-18T06:36:56.462Z,-18595.91
2023-04-18T06:39:59.363Z,-18599.19
2023-04-18T06:43:02.120Z,-18605.75
2023-04-18T06:46:06.046Z,-18609.84
2023-04-18T06:49:08.931Z,-18613.12
2023-04-18T06:52:12.027Z,-18617.63
2023-04-18T06:55:14.702Z,-18618.84
2023-04-18T06:58:17.844Z,-18624.03
2023-04-18T07:01:20.852Z,-18622.94
2023-04-18T07:04:24.358Z,-18629.78
2023-04-18T07:07:27.077Z,-18633.59
2023-04-18T07:10:30.627Z,-18639.72
2023-04-18T07:13:33.415Z,-18636.59
2023-04-18T07:16:36.316Z,-18634.28
2023-04-18T07:19:39.153Z,-18635.63
2023-04-18T07:22:42.408Z,-18640.13
2023-04-18T07:25:45.354Z,-18642.47
2023-04-18T07:28:49.127Z,-18641.78
2023-04-18T07:31:52.131Z,-18641.91
2023-04-18T07:34:55.464Z,-18638.22
2023-04-18T07:37:58.342Z,-18646.00
2023-04-18T07:41:02.244Z,-18638.50
2023-04-18T07:44:05.359Z,-18631.13
2023-04-18T07:47:11.590Z,-18632.78
2023-04-18T07:50:14.313Z,-18627.44
2023-04-18T07:53:17.211Z,-18623.22
2023-04-18T07:56:19.923Z,-18619.94
2023-04-18T07:59:22.966Z,-18622.53
2023-04-18T08:02:25.867Z,-18621.72
2023-04-18T08:05:28.893Z,-18622.53
2023-04-18T08:08:31.812Z,-18628.41
2023-04-18T08:11:35.194Z,-18632.78
2023-04-18T08:14:37.958Z,-18642.03
2023-04-18T08:17:43.609Z,-18649.97
2023-04-18T08:20:47.043Z,-18659.50
2023-04-18T08:23:50.061Z,-18672.31
2023-04-18T08:26:52.684Z,-18682.00
2023-04-18T08:29:55.956Z,-18683.34
2023-04-18T08:33:01.921Z,-18686.75
2023-04-18T08:36:05.421Z,-18691.94
2023-04-18T08:39:08.174Z,-18693.84
2023-04-18T08:42:11.646Z,-18718.59
2023-04-18T08:45:14.708Z,-18714.66
2023-04-18T08:48:18.072Z,-18714.25
2023-04-18T08:51:21.546Z,-18708.13
2023-04-18T08:54:30.494Z,-18704.31
2023-04-18T08:57:33.390Z,-18694.50
2023-04-18T09:00:36.298Z,-18700.66
2023-04-18T09:03:41.787Z,-18698.59
2023-04-18T09:06:53.758Z,-18698.75
2023-04-18T09:09:57.715Z,-18694.38
2023-04-18T09:13:05.644Z,-18700.78
2023-04-18T09:16:08.586Z,-18703.91
2023-04-18T09:19:18.860Z,-18706.91
2023-04-18T09:22:21.931Z,-18711.00
2023-04-18T09:25:27.634Z,-18709.09
2023-04-18T09:28:33.174Z,-18715.63
2023-04-18T09:31:53.835Z,-18715.47
2023-04-18T09:35:03.532Z,-18706.63
2023-04-18T09:38:07.921Z,-18712.47
2023-04-18T09:41:12.071Z,-18718.06
2023-04-18T09:44:20.283Z,-18729.75
2023-04-18T09:47:23.194Z,-18743.91
2023-04-18T09:50:26.140Z,-18752.88
2023-04-18T09:53:29.891Z,-18768.09
2023-04-18T09:56:37.271Z,-18761.44
2023-04-18T09:59:39.871Z,-18765.78
2023-04-18T10:03:00.499Z,-18764.00
2023-04-18T10:06:03.953Z,-18757.22
2023-04-18T10:09:09.307Z,-18755.19
2023-04-18T10:12:12.884Z,-18768.34
2023-04-18T10:15:17.358Z,-18774.59
2023-04-18T10:18:24.251Z,-18766.44
2023-04-18T10:21:28.785Z,-18761.28
2023-04-18T10:24:52.864Z,-18756.41
2023-04-18T10:27:57.653Z,-18752.06
2023-04-18T10:31:05.625Z,-18752.88
2023-04-18T10:34:08.691Z,-18762.25
2023-04-18T10:37:13.051Z,-18771.06
2023-04-18T10:40:15.919Z,-18769.16
2023-04-18T10:43:18.931Z,-18776.09
2023-04-18T10:46:31.819Z,-18788.31
2023-04-18T10:49:38.804Z,-18783.69
2023-04-18T10:52:42.093Z,-18789.81
2023-04-18T10:55:54.243Z,-18795.22
2023-04-18T10:59:01.590Z,-18789.94
2023-04-18T11:02:30.743Z,-18777.72
2023-04-18T11:05:34.460Z,-18778.25
2023-04-18T11:08:37.697Z,-18788.59
2023-04-18T11:11:41.583Z,-18787.63
2023-04-18T11:14:46.768Z,-18784.25
2023-04-18T11:18:01.273Z,-18780.72
2023-04-18T11:21:04.570Z,-18781.38
2023-04-18T11:24:07.229Z,-18785.72
2023-04-18T11:27:12.202Z,-18795.78
2023-04-18T11:30:15.612Z,-18794.28
2023-04-18T11:33:18.597Z,-18785.19
2023-04-18T11:36:21.590Z,-18775.81
2023-04-18T11:39:25.183Z,-18780.16
2023-04-18T11:42:31.068Z,-18773.25
2023-04-18T11:45:34.171Z,-18778.00
2023-04-18T11:48:41.774Z,-18770.66
2023-04-18T11:51:46.352Z,-18755.59
2023-04-18T11:54:49.148Z,-18757.22
2023-04-18T11:57:57.791Z,-18752.88
2023-04-18T12:01:14.952Z,-18761.84
2023-04-18T12:04:19.095Z,-18763.06
2023-04-18T12:07:36.511Z,-18773.78
2023-04-18T12:10:52.675Z,-18774.87
2023-04-18T12:13:57.112Z,-18781.13
2023-04-18T12:17:03.859Z,-18785.72
2023-04-18T12:20:09.999Z,-18794.97
2023-04-18T12:23:48.575Z,-18812.19
2023-04-18T12:26:51.795Z,-18801.88
2023-04-18T12:29:54.984Z,-18803.38
2023-04-18T12:32:59.691Z,-18805.94
2023-04-18T12:36:02.955Z,-18801.47
2023-04-18T12:39:05.559Z,-18787.63
2023-04-18T12:42:08.393Z,-18781.13
2023-04-18T12:45:12.103Z,-18767.94
2023-04-18T12:48:15.060Z,-18759.38
2023-04-18T12:51:17.792Z,-18756.00
2023-04-18T12:54:20.762Z,-18752.59
2023-04-18T12:57:23.969Z,-18753.00
2023-04-18T13:00:29.579Z,-18748.25
2023-04-18T13:03:33.741Z,-18751.50
2023-04-18T13:06:37.758Z,-18752.59
2023-04-18T13:09:40.621Z,-18747.69
2023-04-18T13:12:44.659Z,-18767.41
2023-04-18T13:15:48.384Z,-18775.97
2023-04-18T13:18:51.394Z,-18778.41
2023-04-18T13:21:54.028Z,-18786.97
2023-04-18T13:24:57.139Z,-18791.69
2023-04-18T13:28:01.069Z,-18799.72
2023-04-18T13:31:04.337Z,-18805.13
2023-04-18T13:34:07.132Z,-18795.09
2023-04-18T13:37:10.244Z,-18789.94
2023-04-18T13:40:13.058Z,-18772.16
2023-04-18T13:43:15.994Z,-18779.50
2023-04-18T13:46:18.769Z,-18792.91
2023-04-18T13:49:21.787Z,-18801.47
2023-04-18T13:52:24.846Z,-18802.28
2023-04-18T13:55:27.712Z,-18807.84
2023-04-18T13:58:30.450Z,-18810.28
2023-04-18T14:01:33.807Z,-18811.22
2023-04-18T14:04:37.658Z,-18813.25
2023-04-18T14:07:40.635Z,-18808.78
2023-04-18T14:10:43.932Z,-18798.63
2023-04-18T14:13:46.565Z,-18797.53
2023-04-18T14:16:49.433Z,-18804.19
2023-04-18T14:19:52.156Z,-18814.91
2023-04-18T14:22:55.197Z,-18819.38
2023-04-18T14:25:59.766Z,-18832.50
2023-04-18T14:29:05.070Z,-18846.59
2023-04-18T14:32:07.752Z,-18842.41
2023-04-18T14:35:10.933Z,-18827.50
2023-04-18T14:38:14.695Z,-18831.16
2023-04-18T14:41:17.589Z,-18837.38
2023-04-18T14:44:21.213Z,-18846.47
2023-04-18T14:47:26.914Z,-18866.09
2023-04-18T14:50:29.582Z,-18902.59
2023-04-18T14:53:32.577Z,-18935.41
2023-04-18T14:56:35.536Z,-18943.63
2023-04-18T14:59:38.414Z,-18954.56
2023-04-18T15:02:41.971Z,-18961.31
2023-04-18T15:05:48.343Z,-18960.50
2023-04-18T15:08:52.344Z,-18969.78
2023-04-18T15:11:55.285Z,-18921.50
2023-04-18T15:14:59.530Z,-18907.72
2023-04-18T15:18:02.872Z,-18952.13
2023-04-18T15:21:05.568Z,-19005.34
2023-04-18T15:24:08.493Z,-19005.19
2023-04-18T15:27:11.507Z,-19051.44
2023-04-18T15:30:14.519Z,-19046.72
2023-04-18T15:33:19.053Z,-19059.75
2023-04-18T15:36:22.036Z,-19059.34
2023-04-18T15:39:24.672Z,-19089.25
2023-04-18T15:42:28.150Z,-19123.00
2023-04-18T15:45:30.927Z,-19144.69
2023-04-18T15:48:34.844Z,-19148.44
2023-04-18T15:51:37.381Z,-19123.28
2023-04-18T15:54:41.667Z,-19080.69
2023-04-18T15:57:44.187Z,-19066.06
2023-04-18T16:00:50.615Z,-19024.84
2023-04-18T16:03:53.533Z,-19021.06
2023-04-18T16:06:56.210Z,-18980.97
2023-04-18T16:09:59.189Z,-18911.66
2023-04-18T16:13:02.470Z,-18852.00
2023-04-18T16:16:06.098Z,-18814.75
2023-04-18T16:19:08.801Z,-18790.88
2023-04-18T16:22:12.491Z,-18775.97
2023-04-18T16:25:15.129Z,-18767.81
2023-04-18T16:28:17.911Z,-18752.88
2023-04-18T16:31:20.557Z,-18744.03
2023-04-18T16:34:23.760Z,-18737.66
2023-04-18T16:37:26.438Z,-18732.63
2023-04-18T16:40:30.724Z,-18725.69
2023-04-18T16:43:36.588Z,-18722.13
2023-04-18T16:46:39.639Z,-18720.25
2023-04-18T16:49:44.104Z,-18721.88
2023-04-18T16:52:46.930Z,-18716.28
2023-04-18T16:55:53.229Z,-18713.44
2023-04-18T16:58:56.264Z,-18707.44
2023-04-18T17:01:59.624Z,-18704.44
2023-04-18T17:05:02.872Z,-18698.19
2023-04-18T17:08:06.430Z,-18695.75
2023-04-18T17:11:09.472Z,-18691.38
2023-04-18T17:14:12.227Z,-18686.22
2023-04-18T17:17:15.320Z,-18682.13
2023-04-18T17:20:18.518Z,-18677.75
2023-04-18T17:23:21.937Z,-18673.66
2023-04-18T17:26:26.444Z,-18670.41
2023-04-18T17:29:29.921Z,-18668.22
2023-04-18T17:32:32.681Z,-18664.53
2023-04-18T17:35:35.940Z,-18660.31
2023-04-18T17:38:40.576Z,-18656.09
2023-04-18T17:41:44.839Z,-18651.47
2023-04-18T17:44:47.402Z,-18646.69
2023-04-18T17:47:50.884Z,-18642.47
2023-04-18T17:50:53.663Z,-18638.22
2023-04-18T17:53:56.752Z,-18635.50
2023-04-18T17:56:59.552Z,-18631.28
2023-04-18T18:00:02.523Z,-18626.50
2023-04-18T18:03:16.296Z,-18622.81
2023-04-18T18:06:19.395Z,-18619.41
2023-04-18T18:09:22.154Z,-18615.03
2023-04-18T18:12:25.039Z,-18612.84
2023-04-18T18:15:28.546Z,-18611.06
2023-04-18T18:18:32.188Z,-18608.19
2023-04-18T18:21:35.095Z,-18607.13
2023-04-18T18:24:38.061Z,-18606.16
2023-04-18T18:27:40.934Z,-18604.50
2023-04-18T18:30:43.874Z,-18603.00
2023-04-18T18:33:46.491Z,-18602.34
2023-04-18T18:36:51.049Z,-18602.34
2023-04-18T18:39:57.084Z,-18601.66
2023-04-18T18:43:00.828Z,-18601.09
2023-04-18T18:46:03.418Z,-18601.91
2023-04-18T18:49:06.355Z,-18601.78
2023-04-18T18:52:09.209Z,-18600.84
2023-04-18T18:55:12.231Z,-18600.41
2023-04-18T18:58:14.845Z,-18599.72
2023-04-18T19:01:17.761Z,-18599.72
2023-04-18T19:04:20.754Z,-18599.47
2023-04-18T19:07:23.811Z,-18598.22
2023-04-18T19:10:26.589Z,-18597.41
2023-04-18T19:13:29.537Z,-18597.56
2023-04-18T19:16:33.726Z,-18598.22
2023-04-18T19:19:36.934Z,-18600.28
2023-04-18T19:22:39.630Z,-18604.78
2023-04-18T19:25:43.278Z,-18607.66
2023-04-18T19:28:46.152Z,-18610.25
2023-04-18T19:31:49.885Z,-18608.47
2023-04-18T19:34:52.598Z,-18608.19
2023-04-18T19:38:01.452Z,-18612.16
2023-04-18T19:41:04.514Z,-18612.56
2023-04-18T19:44:07.767Z,-18611.88
2023-04-18T19:47:10.806Z,-18612.84
2023-04-18T19:50:14.711Z,-18611.75
2023-04-18T19:53:19.083Z,-18609.56
2023-04-18T19:56:22.591Z,-18608.19
2023-04-18T19:59:25.432Z,-18610.66
2023-04-18T20:02:28.609Z,-18608.88
2023-04-18T20:05:31.850Z,-18608.75
2023-04-18T20:08:39.174Z,-18606.56
2023-04-18T20:11:43.067Z,-18605.88
2023-04-18T20:14:45.821Z,-18609.28
2023-04-18T20:17:48.813Z,-18614.63
2023-04-18T20:20:51.882Z,-18617.34
2023-04-18T20:23:56.555Z,-18619.41
2023-04-18T20:26:59.681Z,-18614.91
2023-04-18T20:30:02.632Z,-18612.03
2023-04-18T20:33:05.530Z,-18609.28
2023-04-18T20:36:08.507Z,-18608.06
2023-04-18T20:39:14.576Z,-18607.53
2023-04-18T20:42:18.687Z,-18608.06
2023-04-18T20:45:22.889Z,-18606.03
2023-04-18T20:48:26.017Z,-18603.97
2023-04-18T20:51:29.541Z,-18601.09
2023-04-18T20:54:32.466Z,-18598.38
2023-04-18T20:57:36.031Z,-18597.00
2023-04-18T21:00:40.342Z,-18595.38
2023-04-18T21:03:43.103Z,-18593.88
2023-04-18T21:06:46.236Z,-18592.63
2023-04-18T21:09:48.817Z,-18591.94
2023-04-18T21:12:52.302Z,-18591.41
2023-04-18T21:15:57.038Z,-18591.12
2023-04-18T21:19:00.063Z,-18588.53
2023-04-18T21:22:02.716Z,-18588.25
2023-04-18T21:25:06.054Z,-18589.09
2023-04-18T21:28:08.759Z,-18593.44
2023-04-18T21:31:11.679Z,-18592.63
2023-04-18T21:34:14.936Z,-18591.81
2023-04-18T21:37:18.109Z,-18590.19
2023-04-18T21:40:22.644Z,-18589.63
2023-04-18T21:43:26.207Z,-18589.22
2023-04-18T21:46:28.846Z,-18591.94
2023-04-18T21:49:31.932Z,-18587.03
2023-04-18T21:52:35.159Z,-18584.97
2023-04-18T21:55:38.030Z,-18584.97
2023-04-18T21:58:40.628Z,-18586.50
2023-04-18T22:01:43.655Z,-18586.34
2023-04-18T22:04:48.120Z,-18586.34
2023-04-18T22:07:57.997Z,-18585.38
2023-04-18T22:11:01.665Z,-18586.06
2023-04-18T22:14:04.341Z,-18585.25
2023-04-18T22:17:09.234Z,-18584.44
2023-04-18T22:20:12.837Z,-18586.50
2023-04-18T22:23:16.064Z,-18583.88
2023-04-18T22:26:18.681Z,-18582.78
2023-04-18T22:29:21.847Z,-18582.53
2023-04-18T22:32:24.552Z,-18583.06
2023-04-18T22:35:27.616Z,-18580.59
2023-04-18T22:38:33.194Z,-18578.69
2023-04-18T22:41:36.303Z,-18577.47
2023-04-18T22:44:39.212Z,-18578.56
2023-04-18T22:47:42.239Z,-18577.19
2023-04-18T22:50:46.244Z,-18576.78
2023-04-18T22:53:49.234Z,-18575.41
2023-04-18T22:56:51.771Z,-18574.59
2023-04-18T22:59:54.735Z,-18574.31
2023-04-18T23:02:57.522Z,-18574.88
2023-04-18T23:06:01.254Z,-18575.00
2023-04-18T23:09:06.481Z,-18575.69
2023-04-18T23:12:09.398Z,-18574.59
2023-04-18T23:15:12.658Z,-18576.09
2023-04-18T23:18:15.829Z,-18578.16
2023-04-18T23:21:18.522Z,-18576.09
2023-04-18T23:24:21.364Z,-18575.56
2023-04-18T23:27:24.203Z,-18577.06
2023-04-18T23:30:28.585Z,-18575.97
2023-04-18T23:33:31.895Z,-18574.72
2023-04-18T23:36:34.854Z,-18574.47
2023-04-18T23:39:37.444Z,-18573.78
2023-04-18T23:42:40.401Z,-18572.81
2023-04-18T23:45:43.229Z,-18572.69
2023-04-18T23:48:46.099Z,-18571.88
2023-04-18T23:51:48.741Z,-18571.31
2023-04-18T23:54:51.922Z,-18571.19
2023-04-18T23:57:54.713Z,-18571.19
